createdAt,value
2018-07-13T00:01:34.748Z,16.50
2018-07-13T00:05:39.490Z,16.50
2018-07-13T00:09:43.169Z,16.40
2018-07-13T00:14:10.510Z,16.30
2018-07-13T00:18:16.272Z,16.30
2018-07-13T00:22:19.833Z,16.20
2018-07-13T00:26:23.532Z,16.10
2018-07-13T00:30:27.139Z,16.10
2018-07-13T00:34:30.674Z,16.30
2018-07-13T00:38:34.371Z,16.00
2018-07-13T00:42:40.122Z,15.90
2018-07-13T00:46:43.745Z,15.90
2018-07-13T00:50:47.475Z,15.90
2018-07-13T00:54:51.111Z,15.80
2018-07-13T00:58:56.759Z,15.80
2018-07-13T01:03:12.447Z,15.80
2018-07-13T01:07:20.804Z,15.90
2018-07-13T01:11:24.495Z,15.80
2018-07-13T01:15:28.047Z,15.60
2018-07-13T01:19:31.682Z,15.50
2018-07-13T01:23:35.230Z,15.40
2018-07-13T01:27:38.783Z,15.30
2018-07-13T01:31:42.410Z,15.30
2018-07-13T01:35:52.494Z,15.30
2018-07-13T01:39:55.998Z,15.40
2018-07-13T01:43:59.868Z,15.50
2018-07-13T01:48:03.880Z,15.50
2018-07-13T01:52:10.049Z,15.40
2018-07-13T01:56:13.606Z,15.30
2018-07-13T02:00:17.276Z,15.20
2018-07-13T02:04:21.818Z,15.20
2018-07-13T02:08:25.429Z,15.00
2018-07-13T02:12:30.118Z,15.10
2018-07-13T02:16:34.362Z,15.10
2018-07-13T02:20:38.908Z,15.00
2018-07-13T02:24:42.687Z,14.90
2018-07-13T02:28:46.250Z,14.90
2018-07-13T02:36:55.601Z,14.90
2018-07-13T02:40:59.186Z,14.80
2018-07-13T02:45:02.770Z,14.70
2018-07-13T02:49:10.102Z,14.60
2018-07-13T02:53:13.658Z,14.60
2018-07-13T02:57:17.261Z,14.80
2018-07-13T03:01:20.819Z,14.60
2018-07-13T03:05:25.290Z,14.50
2018-07-13T03:09:28.849Z,14.60
2018-07-13T03:13:32.478Z,14.50
2018-07-13T03:17:36.014Z,14.50
2018-07-13T03:21:39.625Z,14.50
2018-07-13T03:25:43.170Z,14.40
2018-07-13T03:29:46.814Z,14.40
2018-07-13T03:33:50.362Z,14.60
2018-07-13T03:37:53.957Z,14.50
2018-07-13T03:41:57.534Z,14.60
2018-07-13T03:46:01.132Z,14.60
2018-07-13T03:50:04.704Z,14.50
2018-07-13T03:54:08.266Z,14.50
2018-07-13T03:58:11.873Z,14.70
2018-07-13T04:02:15.509Z,14.70
2018-07-13T04:06:19.199Z,14.70
2018-07-13T04:10:22.945Z,14.70
2018-07-13T04:14:26.623Z,14.60
2018-07-13T04:18:30.301Z,14.50
2018-07-13T04:22:33.911Z,14.60
2018-07-13T04:26:37.724Z,14.70
2018-07-13T04:30:41.983Z,14.80
2018-07-13T04:34:45.625Z,15.00
2018-07-13T04:38:49.298Z,15.00
2018-07-13T04:42:52.993Z,15.00
2018-07-13T04:46:56.762Z,15.10
2018-07-13T04:51:04.794Z,15.20
2018-07-13T04:55:12.890Z,15.20
2018-07-13T04:59:16.622Z,15.10
2018-07-13T05:03:21.206Z,15.20
2018-07-13T05:07:24.999Z,15.10
2018-07-13T05:11:29.626Z,15.10
2018-07-13T05:15:33.259Z,15.10
2018-07-13T05:19:36.833Z,15.30
2018-07-13T05:23:40.876Z,15.50
2018-07-13T05:27:44.482Z,15.60
2018-07-13T05:31:48.297Z,15.60
2018-07-13T05:35:51.899Z,15.60
2018-07-13T05:39:55.990Z,15.80
2018-07-13T05:43:59.904Z,16.30
2018-07-13T05:48:03.616Z,16.40
2018-07-13T05:52:07.263Z,16.60
2018-07-13T05:56:10.894Z,16.80
2018-07-13T06:00:15.672Z,17.10
2018-07-13T06:04:19.470Z,17.40
2018-07-13T06:08:23.118Z,17.70
2018-07-13T06:12:26.787Z,18.20
2018-07-13T06:16:31.412Z,19.00
2018-07-13T06:20:35.051Z,19.60
2018-07-13T06:24:38.602Z,20.30
2018-07-13T06:29:04.339Z,20.60
2018-07-13T06:33:09.012Z,21.20
2018-07-13T06:37:13.719Z,21.30
2018-07-13T06:41:20.572Z,22.10
2018-07-13T06:45:24.339Z,22.40
2018-07-13T06:49:28.019Z,23.30
2018-07-13T06:53:31.741Z,24.40
2018-07-13T06:57:51.586Z,25.50
2018-07-13T07:02:01.448Z,26.90
2018-07-13T07:06:11.280Z,27.40
2018-07-13T07:10:19.659Z,28.40
2018-07-13T07:14:23.210Z,28.60
2018-07-13T07:18:26.906Z,28.40
2018-07-13T07:22:31.993Z,28.30
2018-07-13T07:26:35.779Z,28.60
2018-07-13T07:30:39.679Z,28.00
2018-07-13T07:34:55.079Z,28.00
2018-07-13T07:38:58.663Z,28.90
2018-07-13T07:43:03.659Z,28.60
2018-07-13T07:47:07.211Z,28.60
2018-07-13T07:51:10.911Z,28.40
2018-07-13T07:55:14.494Z,28.80
2018-07-13T07:59:18.419Z,28.40
2018-07-13T08:03:22.030Z,28.00
2018-07-13T08:07:35.341Z,28.50
2018-07-13T08:11:39.290Z,28.90
2018-07-13T08:15:42.966Z,29.10
2018-07-13T08:19:46.575Z,28.40
2018-07-13T08:24:00.652Z,29.20
2018-07-13T08:28:04.711Z,29.60
2018-07-13T08:32:16.027Z,29.60
2018-07-13T08:36:19.571Z,29.40
2018-07-13T08:40:23.170Z,29.70
2018-07-13T08:44:34.389Z,30.10
2018-07-13T08:48:38.186Z,30.30
2018-07-13T08:52:45.230Z,29.50
2018-07-13T08:56:48.950Z,28.80
2018-07-13T09:00:52.649Z,28.50
2018-07-13T09:04:56.355Z,29.40
2018-07-13T09:08:59.984Z,29.60
2018-07-13T09:13:03.805Z,28.20
2018-07-13T09:17:07.355Z,26.80
2018-07-13T09:21:16.400Z,28.00
2018-07-13T09:25:20.002Z,28.80
2018-07-13T09:29:23.598Z,28.00
2018-07-13T09:33:27.194Z,28.00
2018-07-13T09:37:32.863Z,28.60
2018-07-13T09:45:40.851Z,29.80
2018-07-13T09:49:45.760Z,29.30
2018-07-13T09:53:49.551Z,28.40
2018-07-13T09:57:53.057Z,27.80
2018-07-13T10:01:56.795Z,27.80
2018-07-13T10:06:04.134Z,27.40
2018-07-13T10:10:07.730Z,28.60
2018-07-13T10:14:11.373Z,29.50
2018-07-13T10:18:19.791Z,29.00
2018-07-13T10:22:29.244Z,27.50
2018-07-13T10:26:35.570Z,27.30
2018-07-13T10:30:39.481Z,26.80
2018-07-13T10:34:43.518Z,26.30
2018-07-13T10:38:47.170Z,26.70
2018-07-13T10:42:52.242Z,27.10
2018-07-13T10:46:59.979Z,27.10
2018-07-13T10:51:06.663Z,26.40
2018-07-13T10:55:11.075Z,27.60
2018-07-13T10:59:14.662Z,26.90
2018-07-13T11:03:18.224Z,26.00
2018-07-13T11:07:21.988Z,26.50
2018-07-13T11:11:25.751Z,27.10
2018-07-13T11:15:29.423Z,28.50
2018-07-13T11:19:40.282Z,27.00
2018-07-13T11:23:43.910Z,27.70
2018-07-13T11:27:47.506Z,29.00
2018-07-13T11:31:51.053Z,28.40
2018-07-13T11:35:54.682Z,27.00
2018-07-13T11:40:02.730Z,27.00
2018-07-13T11:44:06.438Z,27.50
2018-07-13T11:48:11.100Z,27.80
2018-07-13T11:52:14.923Z,27.80
2018-07-13T11:56:18.473Z,27.40
2018-07-13T12:00:25.407Z,26.70
2018-07-13T12:04:32.666Z,27.10
2018-07-13T12:08:40.483Z,26.90
2018-07-13T12:12:44.042Z,26.90
2018-07-13T12:16:52.368Z,26.70
2018-07-13T12:20:56.561Z,27.10
2018-07-13T12:25:00.087Z,27.40
2018-07-13T12:29:09.833Z,27.80
2018-07-13T12:33:15.691Z,27.20
2018-07-13T12:37:22.943Z,26.80
2018-07-13T12:45:30.228Z,26.80
2018-07-13T12:49:34.714Z,26.80
2018-07-13T12:53:40.685Z,26.40
2018-07-13T12:57:48.066Z,26.40
2018-07-13T13:01:51.697Z,26.80
2018-07-13T13:05:55.326Z,26.50
2018-07-13T13:09:59.370Z,26.80
2018-07-13T13:14:05.283Z,27.30
2018-07-13T13:18:08.847Z,27.20
2018-07-13T13:22:16.212Z,27.50
2018-07-13T13:26:20.306Z,27.00
2018-07-13T13:30:24.954Z,26.30
2018-07-13T13:34:32.266Z,26.00
2018-07-13T13:42:39.974Z,25.90
2018-07-13T13:46:44.526Z,26.10
2018-07-13T13:50:48.274Z,26.40
2018-07-13T13:54:54.966Z,26.40
2018-07-13T13:58:58.546Z,26.60
2018-07-13T14:03:05.299Z,26.50
2018-07-13T14:07:08.935Z,26.40
2018-07-13T14:11:12.630Z,26.60
2018-07-13T14:15:19.970Z,26.60
2018-07-13T14:19:24.117Z,26.00
2018-07-13T14:23:28.930Z,26.00
2018-07-13T14:27:32.441Z,26.40
2018-07-13T14:31:42.456Z,26.50
2018-07-13T14:35:47.330Z,26.50
2018-07-13T14:39:50.946Z,26.50
2018-07-13T14:43:56.584Z,26.00
2018-07-13T14:48:01.034Z,26.00
2018-07-13T14:52:05.452Z,26.30
2018-07-13T14:56:12.570Z,26.30
2018-07-13T15:00:22.987Z,26.40
2018-07-13T15:04:27.718Z,26.50
2018-07-13T15:08:32.505Z,26.50
2018-07-13T15:12:37.021Z,26.40
2018-07-13T15:16:40.598Z,26.10
2018-07-13T15:20:44.447Z,26.20
2018-07-13T15:24:48.980Z,26.20
2018-07-13T15:28:52.795Z,26.20
2018-07-13T15:32:56.437Z,26.20
2018-07-13T15:37:00.164Z,25.90
2018-07-13T15:41:03.735Z,26.00
2018-07-13T15:45:08.683Z,26.30
2018-07-13T15:49:12.452Z,26.40
2018-07-13T15:57:21.153Z,26.00
2018-07-13T16:01:25.599Z,25.90
2018-07-13T16:09:36.150Z,26.20
2018-07-13T16:13:41.182Z,26.10
2018-07-13T16:17:44.742Z,25.90
2018-07-13T16:21:52.590Z,26.00
2018-07-13T16:25:56.796Z,26.00
2018-07-13T16:30:00.342Z,25.50
2018-07-13T16:34:04.702Z,25.30
2018-07-13T16:38:11.731Z,25.40
2018-07-13T16:42:15.568Z,25.10
2018-07-13T16:46:19.128Z,24.90
2018-07-13T16:50:22.808Z,25.00
2018-07-13T16:54:27.101Z,25.10
2018-07-13T16:58:31.042Z,25.10
2018-07-13T17:02:34.748Z,25.20
2018-07-13T17:06:38.376Z,25.00
2018-07-13T17:10:42.006Z,25.10
2018-07-13T17:14:46.035Z,25.10
2018-07-13T17:18:51.631Z,25.00
2018-07-13T17:22:58.259Z,24.90
2018-07-13T17:27:01.868Z,24.90
2018-07-13T17:31:05.595Z,24.90
2018-07-13T17:35:12.468Z,24.80
2018-07-13T17:43:19.338Z,24.40
2018-07-13T17:51:29.661Z,24.50
2018-07-13T17:55:34.846Z,24.40
2018-07-13T17:59:38.410Z,24.30
2018-07-13T18:03:45.783Z,24.20
2018-07-13T18:07:50.353Z,24.20
2018-07-13T18:11:55.411Z,24.20
2018-07-13T18:16:00.282Z,24.20
2018-07-13T18:20:11.571Z,24.10
2018-07-13T18:24:16.859Z,24.20
2018-07-13T18:28:20.455Z,24.20
2018-07-13T18:32:24.000Z,24.10
2018-07-13T18:36:31.846Z,24.10
2018-07-13T18:40:36.414Z,24.00
2018-07-13T18:44:40.073Z,24.10
2018-07-13T18:48:43.662Z,24.10
2018-07-13T18:52:48.270Z,24.00
2018-07-13T18:57:00.426Z,23.90
2018-07-13T19:01:04.701Z,23.80
2018-07-13T19:05:08.215Z,23.80
2018-07-13T19:09:15.831Z,23.80
2018-07-13T19:13:19.593Z,23.70
2018-07-13T19:17:23.406Z,23.60
2018-07-13T19:21:27.040Z,23.40
2018-07-13T19:25:33.729Z,23.30
2018-07-13T19:29:37.311Z,23.20
2018-07-13T19:33:41.110Z,23.10
2018-07-13T19:37:47.570Z,22.90
2018-07-13T19:41:51.396Z,22.80
2018-07-13T19:45:56.063Z,22.60
2018-07-13T19:50:00.569Z,22.40
2018-07-13T19:54:07.663Z,22.30
2018-07-13T20:02:49.637Z,22.00
2018-07-13T20:06:53.323Z,21.80
2018-07-13T20:10:59.135Z,21.60
2018-07-13T20:15:04.002Z,21.40
2018-07-13T20:19:08.409Z,21.30
2018-07-13T20:23:12.179Z,21.00
2018-07-13T20:27:19.525Z,21.00
2018-07-13T20:31:24.652Z,21.10
2018-07-13T20:35:28.290Z,20.90
2018-07-13T20:39:33.784Z,20.70
2018-07-13T20:43:37.363Z,20.60
2018-07-13T20:47:41.514Z,20.60
2018-07-13T20:51:47.223Z,20.60
2018-07-13T20:55:51.133Z,20.50
2018-07-13T20:59:54.678Z,20.60
2018-07-13T21:03:58.391Z,20.20
2018-07-13T21:08:03.998Z,20.30
2018-07-13T21:12:07.734Z,20.20
2018-07-13T21:16:11.276Z,19.90
2018-07-13T21:20:20.223Z,19.80
2018-07-13T21:24:24.644Z,19.80
2018-07-13T21:28:28.216Z,19.70
2018-07-13T21:32:34.939Z,19.50
2018-07-13T21:40:48.959Z,19.40
2018-07-13T21:44:53.070Z,19.30
2018-07-13T21:49:07.956Z,19.20
2018-07-13T21:53:19.470Z,19.10
2018-07-13T21:57:24.872Z,19.10
2018-07-13T22:01:28.466Z,19.00
2018-07-13T22:05:35.545Z,18.70
2018-07-13T22:09:39.126Z,18.70
2018-07-13T22:13:42.682Z,18.70
2018-07-13T22:17:46.662Z,18.70
2018-07-13T22:21:51.623Z,18.50
2018-07-13T22:25:57.683Z,18.70
2018-07-13T22:30:05.318Z,18.40
2018-07-13T22:34:08.930Z,18.30
2018-07-13T22:38:12.520Z,18.30
2018-07-13T22:42:17.386Z,18.40
2018-07-13T22:46:21.892Z,18.30
2018-07-13T22:50:25.593Z,18.30
2018-07-13T22:54:29.390Z,18.40
2018-07-13T22:58:39.402Z,18.40
2018-07-13T23:02:42.978Z,18.10
2018-07-13T23:06:52.541Z,18.20
2018-07-13T23:10:56.083Z,18.00
2018-07-13T23:14:59.646Z,18.00
2018-07-13T23:19:06.462Z,17.80
2018-07-13T23:27:13.474Z,17.60
2018-07-13T23:31:17.080Z,17.60
2018-07-13T23:35:20.974Z,17.50
2018-07-13T23:39:24.848Z,17.40
2018-07-13T23:43:28.350Z,17.40
2018-07-13T23:47:39.652Z,17.50
2018-07-13T23:51:43.233Z,17.50
2018-07-13T23:55:46.818Z,17.80
2018-07-13T23:59:52.374Z,17.50
